sensor_id;sensor_type;location;lat;lon;timestamp;P1;durP1;ratioP1;P2;durP2;ratioP2
40515;SDS011;26216;53.724;9.898;2022-08-23T00:00:45;1.90;;;1.08;;
40515;SDS011;26216;53.724;9.898;2022-08-23T00:03:11;2.83;;;1.10;;
40515;SDS011;26216;53.724;9.898;2022-08-23T00:05:37;2.35;;;1.00;;
40515;SDS011;26216;53.724;9.898;2022-08-23T00:08:03;1.20;;;0.90;;
40515;SDS011;26216;53.724;9.898;2022-08-23T00:10:29;2.50;;;1.30;;
40515;SDS011;26216;53.724;9.898;2022-08-23T00:12:56;1.80;;;1.00;;
40515;SDS011;26216;53.724;9.898;2022-08-23T00:15:22;2.70;;;1.50;;
40515;SDS011;26216;53.724;9.898;2022-08-23T00:17:48;2.25;;;1.30;;
40515;SDS011;26216;53.724;9.898;2022-08-23T00:20:15;2.00;;;1.20;;
40515;SDS011;26216;53.724;9.898;2022-08-23T00:22:43;2.97;;;1.17;;
40515;SDS011;26216;53.724;9.898;2022-08-23T00:25:10;2.70;;;1.40;;
40515;SDS011;26216;53.724;9.898;2022-08-23T00:27:37;2.33;;;1.20;;
40515;SDS011;26216;53.724;9.898;2022-08-23T00:30:05;3.50;;;1.30;;
40515;SDS011;26216;53.724;9.898;2022-08-23T00:32:34;2.90;;;1.20;;
40515;SDS011;26216;53.724;9.898;2022-08-23T00:35:01;3.08;;;1.20;;
40515;SDS011;26216;53.724;9.898;2022-08-23T00:37:28;2.22;;;1.23;;
40515;SDS011;26216;53.724;9.898;2022-08-23T00:39:56;2.25;;;1.27;;
40515;SDS011;26216;53.724;9.898;2022-08-23T00:42:31;2.65;;;1.23;;
40515;SDS011;26216;53.724;9.898;2022-08-23T00:45:27;1.83;;;1.10;;
40515;SDS011;26216;53.724;9.898;2022-08-23T00:48:16;1.92;;;1.10;;
40515;SDS011;26216;53.724;9.898;2022-08-23T00:53:13;1.95;;;1.20;;
40515;SDS011;26216;53.724;9.898;2022-08-23T00:55:53;2.28;;;1.10;;
40515;SDS011;26216;53.724;9.898;2022-08-23T00:58:24;2.38;;;1.25;;
40515;SDS011;26216;53.724;9.898;2022-08-23T01:00:51;1.67;;;0.90;;
40515;SDS011;26216;53.724;9.898;2022-08-23T01:03:20;2.95;;;1.05;;
40515;SDS011;26216;53.724;9.898;2022-08-23T01:08:19;1.90;;;1.10;;
40515;SDS011;26216;53.724;9.898;2022-08-23T01:10:49;2.35;;;1.10;;
40515;SDS011;26216;53.724;9.898;2022-08-23T01:14:04;2.83;;;1.20;;
40515;SDS011;26216;53.724;9.898;2022-08-23T01:16:20;3.63;;;1.17;;
40515;SDS011;26216;53.724;9.898;2022-08-23T01:18:58;2.15;;;1.25;;
40515;SDS011;26216;53.724;9.898;2022-08-23T01:21:31;2.28;;;1.48;;
40515;SDS011;26216;53.724;9.898;2022-08-23T01:24:03;2.13;;;1.20;;
40515;SDS011;26216;53.724;9.898;2022-08-23T01:26:31;2.45;;;1.33;;
40515;SDS011;26216;53.724;9.898;2022-08-23T01:29:00;4.13;;;1.48;;
40515;SDS011;26216;53.724;9.898;2022-08-23T01:31:29;1.40;;;1.00;;
40515;SDS011;26216;53.724;9.898;2022-08-23T01:33:58;3.25;;;1.33;;
40515;SDS011;26216;53.724;9.898;2022-08-23T01:36:26;1.77;;;1.02;;
40515;SDS011;26216;53.724;9.898;2022-08-23T01:38:53;2.17;;;1.17;;
40515;SDS011;26216;53.724;9.898;2022-08-23T01:41:19;2.80;;;1.27;;
40515;SDS011;26216;53.724;9.898;2022-08-23T01:43:45;2.22;;;1.20;;
40515;SDS011;26216;53.724;9.898;2022-08-23T01:46:13;3.58;;;1.42;;
40515;SDS011;26216;53.724;9.898;2022-08-23T01:48:42;1.55;;;1.10;;
40515;SDS011;26216;53.724;9.898;2022-08-23T01:51:10;2.38;;;1.38;;
40515;SDS011;26216;53.724;9.898;2022-08-23T01:53:38;1.50;;;1.10;;
40515;SDS011;26216;53.724;9.898;2022-08-23T01:56:04;2.45;;;1.20;;
40515;SDS011;26216;53.724;9.898;2022-08-23T01:58:31;2.10;;;1.50;;
40515;SDS011;26216;53.724;9.898;2022-08-23T02:00:59;2.88;;;1.45;;
40515;SDS011;26216;53.724;9.898;2022-08-23T02:03:26;1.70;;;1.00;;
40515;SDS011;26216;53.724;9.898;2022-08-23T02:05:53;2.30;;;1.27;;
40515;SDS011;26216;53.724;9.898;2022-08-23T02:08:19;2.40;;;1.20;;
40515;SDS011;26216;53.724;9.898;2022-08-23T02:11:08;1.52;;;0.93;;
40515;SDS011;26216;53.724;9.898;2022-08-23T02:13:36;3.38;;;1.60;;
40515;SDS011;26216;53.724;9.898;2022-08-23T02:16:02;3.08;;;1.35;;
40515;SDS011;26216;53.724;9.898;2022-08-23T02:18:29;2.30;;;1.20;;
40515;SDS011;26216;53.724;9.898;2022-08-23T02:20:55;1.70;;;1.08;;
40515;SDS011;26216;53.724;9.898;2022-08-23T02:23:21;2.10;;;1.30;;
40515;SDS011;26216;53.724;9.898;2022-08-23T02:25:48;2.67;;;1.25;;
40515;SDS011;26216;53.724;9.898;2022-08-23T02:28:16;3.50;;;1.50;;
40515;SDS011;26216;53.724;9.898;2022-08-23T02:30:45;2.00;;;1.40;;
40515;SDS011;26216;53.724;9.898;2022-08-23T02:33:11;2.15;;;1.13;;
40515;SDS011;26216;53.724;9.898;2022-08-23T02:35:38;3.28;;;1.63;;
40515;SDS011;26216;53.724;9.898;2022-08-23T02:38:06;3.33;;;1.33;;
40515;SDS011;26216;53.724;9.898;2022-08-23T02:40:33;2.13;;;1.48;;
40515;SDS011;26216;53.724;9.898;2022-08-23T02:43:00;2.78;;;1.67;;
40515;SDS011;26216;53.724;9.898;2022-08-23T02:45:26;2.35;;;1.20;;
40515;SDS011;26216;53.724;9.898;2022-08-23T02:47:52;2.20;;;1.20;;
40515;SDS011;26216;53.724;9.898;2022-08-23T02:50:19;2.40;;;1.20;;
40515;SDS011;26216;53.724;9.898;2022-08-23T02:52:46;1.35;;;1.17;;
40515;SDS011;26216;53.724;9.898;2022-08-23T02:55:12;1.88;;;1.27;;
40515;SDS011;26216;53.724;9.898;2022-08-23T02:57:38;1.02;;;0.90;;
40515;SDS011;26216;53.724;9.898;2022-08-23T03:00:04;2.15;;;1.30;;
40515;SDS011;26216;53.724;9.898;2022-08-23T03:02:34;2.17;;;1.45;;
40515;SDS011;26216;53.724;9.898;2022-08-23T03:05:02;2.58;;;1.25;;
40515;SDS011;26216;53.724;9.898;2022-08-23T03:07:32;2.80;;;1.45;;
40515;SDS011;26216;53.724;9.898;2022-08-23T03:09:58;2.13;;;1.40;;
40515;SDS011;26216;53.724;9.898;2022-08-23T03:12:24;1.88;;;1.45;;
40515;SDS011;26216;53.724;9.898;2022-08-23T03:14:51;1.55;;;1.10;;
40515;SDS011;26216;53.724;9.898;2022-08-23T03:17:17;2.67;;;1.48;;
40515;SDS011;26216;53.724;9.898;2022-08-23T03:19:43;3.95;;;1.85;;
40515;SDS011;26216;53.724;9.898;2022-08-23T03:22:09;2.72;;;1.33;;
40515;SDS011;26216;53.724;9.898;2022-08-23T03:24:35;2.22;;;1.08;;
40515;SDS011;26216;53.724;9.898;2022-08-23T03:27:02;2.03;;;1.15;;
40515;SDS011;26216;53.724;9.898;2022-08-23T03:29:29;2.10;;;1.58;;
40515;SDS011;26216;53.724;9.898;2022-08-23T03:31:56;3.35;;;1.75;;
40515;SDS011;26216;53.724;9.898;2022-08-23T03:34:22;3.35;;;1.25;;
40515;SDS011;26216;53.724;9.898;2022-08-23T03:36:48;2.95;;;1.40;;
40515;SDS011;26216;53.724;9.898;2022-08-23T03:39:14;2.85;;;1.42;;
40515;SDS011;26216;53.724;9.898;2022-08-23T03:41:40;3.20;;;1.70;;
40515;SDS011;26216;53.724;9.898;2022-08-23T03:44:06;2.13;;;1.50;;
40515;SDS011;26216;53.724;9.898;2022-08-23T03:46:33;2.15;;;1.40;;
40515;SDS011;26216;53.724;9.898;2022-08-23T03:48:59;1.77;;;1.20;;
40515;SDS011;26216;53.724;9.898;2022-08-23T03:51:27;2.65;;;1.30;;
40515;SDS011;26216;53.724;9.898;2022-08-23T03:53:55;1.85;;;1.45;;
40515;SDS011;26216;53.724;9.898;2022-08-23T03:56:22;2.85;;;1.52;;
40515;SDS011;26216;53.724;9.898;2022-08-23T03:58:50;3.85;;;1.60;;
40515;SDS011;26216;53.724;9.898;2022-08-23T04:01:16;3.05;;;1.80;;
40515;SDS011;26216;53.724;9.898;2022-08-23T04:03:42;2.95;;;1.40;;
40515;SDS011;26216;53.724;9.898;2022-08-23T04:06:09;2.05;;;1.30;;
40515;SDS011;26216;53.724;9.898;2022-08-23T04:08:36;2.30;;;1.40;;
40515;SDS011;26216;53.724;9.898;2022-08-23T04:11:02;2.45;;;1.45;;
40515;SDS011;26216;53.724;9.898;2022-08-23T04:13:29;2.28;;;1.50;;
40515;SDS011;26216;53.724;9.898;2022-08-23T04:15:55;1.85;;;1.27;;
40515;SDS011;26216;53.724;9.898;2022-08-23T04:18:22;2.50;;;1.50;;
40515;SDS011;26216;53.724;9.898;2022-08-23T04:20:48;2.08;;;1.40;;
40515;SDS011;26216;53.724;9.898;2022-08-23T04:23:15;4.15;;;1.42;;
40515;SDS011;26216;53.724;9.898;2022-08-23T04:25:41;2.33;;;1.50;;
40515;SDS011;26216;53.724;9.898;2022-08-23T04:28:09;1.77;;;1.30;;
40515;SDS011;26216;53.724;9.898;2022-08-23T04:30:36;2.08;;;1.52;;
40515;SDS011;26216;53.724;9.898;2022-08-23T04:33:02;2.42;;;1.33;;
40515;SDS011;26216;53.724;9.898;2022-08-23T04:35:28;2.05;;;1.30;;
40515;SDS011;26216;53.724;9.898;2022-08-23T04:37:54;3.83;;;1.48;;
40515;SDS011;26216;53.724;9.898;2022-08-23T04:40:20;3.20;;;1.50;;
40515;SDS011;26216;53.724;9.898;2022-08-23T04:43:04;2.13;;;1.35;;
40515;SDS011;26216;53.724;9.898;2022-08-23T04:45:32;2.75;;;1.60;;
40515;SDS011;26216;53.724;9.898;2022-08-23T04:48:02;2.72;;;1.52;;
40515;SDS011;26216;53.724;9.898;2022-08-23T04:50:27;2.08;;;1.45;;
40515;SDS011;26216;53.724;9.898;2022-08-23T04:52:53;2.92;;;1.65;;
40515;SDS011;26216;53.724;9.898;2022-08-23T04:55:19;3.17;;;1.55;;
40515;SDS011;26216;53.724;9.898;2022-08-23T04:57:47;1.70;;;1.17;;
40515;SDS011;26216;53.724;9.898;2022-08-23T05:00:13;2.80;;;1.60;;
40515;SDS011;26216;53.724;9.898;2022-08-23T05:02:40;2.00;;;1.50;;
40515;SDS011;26216;53.724;9.898;2022-08-23T05:05:07;3.40;;;1.85;;
40515;SDS011;26216;53.724;9.898;2022-08-23T05:07:34;2.42;;;1.40;;
40515;SDS011;26216;53.724;9.898;2022-08-23T05:10:02;2.30;;;1.40;;
40515;SDS011;26216;53.724;9.898;2022-08-23T05:12:32;2.55;;;1.17;;
40515;SDS011;26216;53.724;9.898;2022-08-23T05:14:58;3.78;;;1.63;;
40515;SDS011;26216;53.724;9.898;2022-08-23T05:17:24;2.55;;;1.65;;
40515;SDS011;26216;53.724;9.898;2022-08-23T05:19:50;3.20;;;1.80;;
40515;SDS011;26216;53.724;9.898;2022-08-23T05:22:17;3.60;;;1.80;;
40515;SDS011;26216;53.724;9.898;2022-08-23T05:24:43;1.75;;;1.40;;
40515;SDS011;26216;53.724;9.898;2022-08-23T05:27:09;2.75;;;1.83;;
40515;SDS011;26216;53.724;9.898;2022-08-23T05:29:35;2.38;;;1.52;;
40515;SDS011;26216;53.724;9.898;2022-08-23T05:32:01;2.80;;;1.55;;
40515;SDS011;26216;53.724;9.898;2022-08-23T05:34:27;2.22;;;1.70;;
40515;SDS011;26216;53.724;9.898;2022-08-23T05:36:53;2.70;;;1.50;;
40515;SDS011;26216;53.724;9.898;2022-08-23T05:39:19;2.25;;;1.27;;
40515;SDS011;26216;53.724;9.898;2022-08-23T05:41:45;3.60;;;1.95;;
40515;SDS011;26216;53.724;9.898;2022-08-23T05:44:11;2.97;;;1.60;;
40515;SDS011;26216;53.724;9.898;2022-08-23T05:46:38;2.25;;;1.50;;
40515;SDS011;26216;53.724;9.898;2022-08-23T05:49:04;3.65;;;1.85;;
40515;SDS011;26216;53.724;9.898;2022-08-23T05:51:31;1.55;;;1.38;;
40515;SDS011;26216;53.724;9.898;2022-08-23T05:53:58;2.33;;;1.52;;
40515;SDS011;26216;53.724;9.898;2022-08-23T05:56:31;2.30;;;1.55;;
40515;SDS011;26216;53.724;9.898;2022-08-23T05:59:00;2.75;;;1.60;;
40515;SDS011;26216;53.724;9.898;2022-08-23T06:04:03;3.10;;;1.58;;
40515;SDS011;26216;53.724;9.898;2022-08-23T06:06:31;3.67;;;1.60;;
40515;SDS011;26216;53.724;9.898;2022-08-23T06:08:57;2.20;;;1.40;;
40515;SDS011;26216;53.724;9.898;2022-08-23T06:11:25;2.22;;;1.50;;
40515;SDS011;26216;53.724;9.898;2022-08-23T06:13:53;2.75;;;1.52;;
40515;SDS011;26216;53.724;9.898;2022-08-23T06:16:23;3.13;;;1.50;;
40515;SDS011;26216;53.724;9.898;2022-08-23T06:18:52;2.58;;;1.50;;
40515;SDS011;26216;53.724;9.898;2022-08-23T06:21:20;2.25;;;1.48;;
40515;SDS011;26216;53.724;9.898;2022-08-23T06:23:46;3.25;;;1.45;;
40515;SDS011;26216;53.724;9.898;2022-08-23T06:26:24;3.25;;;1.40;;
40515;SDS011;26216;53.724;9.898;2022-08-23T06:28:53;3.53;;;1.52;;
40515;SDS011;26216;53.724;9.898;2022-08-23T06:31:22;2.92;;;1.42;;
40515;SDS011;26216;53.724;9.898;2022-08-23T06:34:08;3.90;;;1.80;;
40515;SDS011;26216;53.724;9.898;2022-08-23T06:36:36;1.77;;;1.38;;
40515;SDS011;26216;53.724;9.898;2022-08-23T06:39:06;1.92;;;1.45;;
40515;SDS011;26216;53.724;9.898;2022-08-23T06:41:34;2.15;;;1.45;;
40515;SDS011;26216;53.724;9.898;2022-08-23T06:44:00;3.05;;;1.60;;
40515;SDS011;26216;53.724;9.898;2022-08-23T06:46:27;6.15;;;1.85;;
40515;SDS011;26216;53.724;9.898;2022-08-23T06:48:54;2.08;;;1.50;;
40515;SDS011;26216;53.724;9.898;2022-08-23T06:51:22;3.47;;;1.95;;
40515;SDS011;26216;53.724;9.898;2022-08-23T06:53:55;2.97;;;1.60;;
40515;SDS011;26216;53.724;9.898;2022-08-23T06:56:23;2.95;;;1.63;;
40515;SDS011;26216;53.724;9.898;2022-08-23T06:58:51;2.65;;;1.50;;
40515;SDS011;26216;53.724;9.898;2022-08-23T07:01:18;2.15;;;1.40;;
40515;SDS011;26216;53.724;9.898;2022-08-23T07:04:00;3.28;;;1.63;;
40515;SDS011;26216;53.724;9.898;2022-08-23T07:06:28;2.47;;;1.52;;
40515;SDS011;26216;53.724;9.898;2022-08-23T07:08:54;3.40;;;1.65;;
40515;SDS011;26216;53.724;9.898;2022-08-23T07:11:21;2.30;;;1.50;;
40515;SDS011;26216;53.724;9.898;2022-08-23T07:13:47;2.95;;;1.63;;
40515;SDS011;26216;53.724;9.898;2022-08-23T07:16:15;2.72;;;1.58;;
40515;SDS011;26216;53.724;9.898;2022-08-23T07:18:42;2.22;;;1.52;;
40515;SDS011;26216;53.724;9.898;2022-08-23T07:21:10;2.75;;;1.85;;
40515;SDS011;26216;53.724;9.898;2022-08-23T07:23:37;1.95;;;1.45;;
40515;SDS011;26216;53.724;9.898;2022-08-23T07:26:11;3.47;;;1.70;;
40515;SDS011;26216;53.724;9.898;2022-08-23T07:28:39;5.07;;;2.03;;
40515;SDS011;26216;53.724;9.898;2022-08-23T07:31:22;2.10;;;1.60;;
40515;SDS011;26216;53.724;9.898;2022-08-23T07:33:51;3.20;;;1.90;;
40515;SDS011;26216;53.724;9.898;2022-08-23T07:36:20;2.15;;;1.58;;
40515;SDS011;26216;53.724;9.898;2022-08-23T07:38:47;3.22;;;1.80;;
40515;SDS011;26216;53.724;9.898;2022-08-23T07:41:14;3.80;;;1.90;;
40515;SDS011;26216;53.724;9.898;2022-08-23T07:43:41;4.10;;;1.63;;
40515;SDS011;26216;53.724;9.898;2022-08-23T07:46:08;3.88;;;1.85;;
40515;SDS011;26216;53.724;9.898;2022-08-23T07:48:34;1.63;;;1.33;;
40515;SDS011;26216;53.724;9.898;2022-08-23T07:51:01;3.28;;;1.60;;
40515;SDS011;26216;53.724;9.898;2022-08-23T07:53:29;2.45;;;1.45;;
40515;SDS011;26216;53.724;9.898;2022-08-23T07:55:55;2.40;;;1.30;;
40515;SDS011;26216;53.724;9.898;2022-08-23T07:58:22;2.80;;;1.15;;
40515;SDS011;26216;53.724;9.898;2022-08-23T08:00:49;2.58;;;1.45;;
40515;SDS011;26216;53.724;9.898;2022-08-23T08:03:16;3.85;;;1.55;;
40515;SDS011;26216;53.724;9.898;2022-08-23T08:05:43;1.55;;;1.10;;
40515;SDS011;26216;53.724;9.898;2022-08-23T08:08:09;1.85;;;1.45;;
40515;SDS011;26216;53.724;9.898;2022-08-23T08:10:36;1.73;;;1.30;;
40515;SDS011;26216;53.724;9.898;2022-08-23T08:13:05;3.15;;;1.40;;
40515;SDS011;26216;53.724;9.898;2022-08-23T08:15:32;3.40;;;1.33;;
40515;SDS011;26216;53.724;9.898;2022-08-23T08:17:58;2.40;;;1.40;;
40515;SDS011;26216;53.724;9.898;2022-08-23T08:20:24;2.25;;;1.35;;
40515;SDS011;26216;53.724;9.898;2022-08-23T08:22:52;2.40;;;1.48;;
40515;SDS011;26216;53.724;9.898;2022-08-23T08:25:19;2.20;;;1.50;;
40515;SDS011;26216;53.724;9.898;2022-08-23T08:27:45;2.47;;;1.60;;
40515;SDS011;26216;53.724;9.898;2022-08-23T08:30:19;3.42;;;1.58;;
40515;SDS011;26216;53.724;9.898;2022-08-23T08:32:45;1.88;;;1.30;;
40515;SDS011;26216;53.724;9.898;2022-08-23T08:35:11;2.90;;;1.60;;
40515;SDS011;26216;53.724;9.898;2022-08-23T08:37:37;3.13;;;1.40;;
40515;SDS011;26216;53.724;9.898;2022-08-23T08:40:03;2.58;;;1.55;;
40515;SDS011;26216;53.724;9.898;2022-08-23T08:45:43;2.38;;;1.20;;
40515;SDS011;26216;53.724;9.898;2022-08-23T08:48:29;1.75;;;1.27;;
40515;SDS011;26216;53.724;9.898;2022-08-23T08:51:04;2.40;;;1.40;;
40515;SDS011;26216;53.724;9.898;2022-08-23T08:53:53;2.10;;;1.10;;
40515;SDS011;26216;53.724;9.898;2022-08-23T08:56:25;4.47;;;1.30;;
40515;SDS011;26216;53.724;9.898;2022-08-23T08:58:55;2.40;;;1.20;;
40515;SDS011;26216;53.724;9.898;2022-08-23T09:01:25;2.47;;;1.10;;
40515;SDS011;26216;53.724;9.898;2022-08-23T09:03:54;2.15;;;1.13;;
40515;SDS011;26216;53.724;9.898;2022-08-23T09:06:43;2.55;;;1.10;;
40515;SDS011;26216;53.724;9.898;2022-08-23T09:14:50;2.33;;;1.05;;
40515;SDS011;26216;53.724;9.898;2022-08-23T09:19:55;1.60;;;1.00;;
40515;SDS011;26216;53.724;9.898;2022-08-23T09:22:29;1.90;;;1.13;;
40515;SDS011;26216;53.724;9.898;2022-08-23T09:25:07;1.75;;;0.95;;
40515;SDS011;26216;53.724;9.898;2022-08-23T09:27:36;3.33;;;1.25;;
40515;SDS011;26216;53.724;9.898;2022-08-23T09:30:02;1.95;;;1.40;;
40515;SDS011;26216;53.724;9.898;2022-08-23T09:32:33;1.98;;;1.30;;
40515;SDS011;26216;53.724;9.898;2022-08-23T09:35:13;2.50;;;1.33;;
40515;SDS011;26216;53.724;9.898;2022-08-23T09:37:52;2.08;;;1.05;;
40515;SDS011;26216;53.724;9.898;2022-08-23T09:40:37;1.75;;;1.15;;
40515;SDS011;26216;53.724;9.898;2022-08-23T09:43:13;1.65;;;0.88;;
40515;SDS011;26216;53.724;9.898;2022-08-23T09:48:16;2.42;;;1.10;;
40515;SDS011;26216;53.724;9.898;2022-08-23T09:51:23;5.63;;;1.45;;
40515;SDS011;26216;53.724;9.898;2022-08-23T09:56:59;2.15;;;1.42;;
40515;SDS011;26216;53.724;9.898;2022-08-23T09:59:41;1.85;;;1.17;;
40515;SDS011;26216;53.724;9.898;2022-08-23T10:02:43;2.78;;;0.95;;
40515;SDS011;26216;53.724;9.898;2022-08-23T10:07:41;2.33;;;1.30;;
40515;SDS011;26216;53.724;9.898;2022-08-23T10:12:54;2.03;;;1.10;;
40515;SDS011;26216;53.724;9.898;2022-08-23T10:15:25;1.92;;;0.90;;
40515;SDS011;26216;53.724;9.898;2022-08-23T10:18:05;3.38;;;1.30;;
40515;SDS011;26216;53.724;9.898;2022-08-23T10:26:29;1.60;;;1.13;;
40515;SDS011;26216;53.724;9.898;2022-08-23T10:29:09;2.15;;;1.15;;
40515;SDS011;26216;53.724;9.898;2022-08-23T10:34:49;1.73;;;1.27;;
40515;SDS011;26216;53.724;9.898;2022-08-23T10:42:54;1.77;;;1.02;;
40515;SDS011;26216;53.724;9.898;2022-08-23T10:50:29;1.35;;;0.93;;
40515;SDS011;26216;53.724;9.898;2022-08-23T10:53:08;4.10;;;1.08;;
40515;SDS011;26216;53.724;9.898;2022-08-23T10:55:58;1.67;;;0.90;;
40515;SDS011;26216;53.724;9.898;2022-08-23T10:58:49;2.05;;;1.08;;
40515;SDS011;26216;53.724;9.898;2022-08-23T11:01:26;2.22;;;1.10;;
40515;SDS011;26216;53.724;9.898;2022-08-23T11:04:15;1.40;;;0.85;;
40515;SDS011;26216;53.724;9.898;2022-08-23T11:06:57;2.20;;;0.90;;
40515;SDS011;26216;53.724;9.898;2022-08-23T11:14:40;1.60;;;1.02;;
40515;SDS011;26216;53.724;9.898;2022-08-23T11:17:29;1.50;;;1.00;;
40515;SDS011;26216;53.724;9.898;2022-08-23T11:20:08;1.02;;;0.80;;
40515;SDS011;26216;53.724;9.898;2022-08-23T11:27:51;0.88;;;0.70;;
40515;SDS011;26216;53.724;9.898;2022-08-23T11:36:21;2.13;;;0.90;;
40515;SDS011;26216;53.724;9.898;2022-08-23T11:43:45;2.28;;;1.00;;
40515;SDS011;26216;53.724;9.898;2022-08-23T11:46:26;3.03;;;1.00;;
40515;SDS011;26216;53.724;9.898;2022-08-23T11:51:56;2.15;;;1.00;;
40515;SDS011;26216;53.724;9.898;2022-08-23T11:57:43;1.35;;;0.80;;
40515;SDS011;26216;53.724;9.898;2022-08-23T12:00:24;2.00;;;1.27;;
40515;SDS011;26216;53.724;9.898;2022-08-23T12:03:00;1.40;;;0.82;;
40515;SDS011;26216;53.724;9.898;2022-08-23T12:21:22;1.00;;;0.90;;
40515;SDS011;26216;53.724;9.898;2022-08-23T12:23:51;1.60;;;0.95;;
40515;SDS011;26216;53.724;9.898;2022-08-23T12:26:27;1.50;;;0.90;;
40515;SDS011;26216;53.724;9.898;2022-08-23T12:29:23;1.45;;;0.80;;
40515;SDS011;26216;53.724;9.898;2022-08-23T12:32:17;1.83;;;1.00;;
40515;SDS011;26216;53.724;9.898;2022-08-23T12:37:30;0.90;;;0.60;;
40515;SDS011;26216;53.724;9.898;2022-08-23T12:40:14;1.92;;;0.90;;
40515;SDS011;26216;53.724;9.898;2022-08-23T12:43:09;2.33;;;1.02;;
40515;SDS011;26216;53.724;9.898;2022-08-23T12:45:39;1.50;;;1.08;;
40515;SDS011;26216;53.724;9.898;2022-08-23T12:48:12;1.15;;;0.60;;
40515;SDS011;26216;53.724;9.898;2022-08-23T12:50:41;1.17;;;0.80;;
40515;SDS011;26216;53.724;9.898;2022-08-23T12:53:11;1.05;;;0.73;;
40515;SDS011;26216;53.724;9.898;2022-08-23T12:55:40;1.60;;;0.90;;
40515;SDS011;26216;53.724;9.898;2022-08-23T12:58:14;0.95;;;0.65;;
40515;SDS011;26216;53.724;9.898;2022-08-23T13:00:58;1.70;;;0.80;;
40515;SDS011;26216;53.724;9.898;2022-08-23T13:03:33;1.35;;;0.80;;
40515;SDS011;26216;53.724;9.898;2022-08-23T13:06:38;1.10;;;0.70;;
40515;SDS011;26216;53.724;9.898;2022-08-23T13:09:00;0.90;;;0.80;;
40515;SDS011;26216;53.724;9.898;2022-08-23T13:11:31;2.08;;;1.00;;
40515;SDS011;26216;53.724;9.898;2022-08-23T13:14:07;0.90;;;0.65;;
40515;SDS011;26216;53.724;9.898;2022-08-23T13:16:47;1.00;;;0.80;;
40515;SDS011;26216;53.724;9.898;2022-08-23T13:24:36;2.30;;;1.20;;
40515;SDS011;26216;53.724;9.898;2022-08-23T13:27:11;1.02;;;0.80;;
40515;SDS011;26216;53.724;9.898;2022-08-23T13:29:50;1.20;;;0.80;;
40515;SDS011;26216;53.724;9.898;2022-08-23T13:43:29;2.05;;;0.90;;
40515;SDS011;26216;53.724;9.898;2022-08-23T13:46:09;3.63;;;1.13;;
40515;SDS011;26216;53.724;9.898;2022-08-23T13:48:42;1.70;;;0.98;;
40515;SDS011;26216;53.724;9.898;2022-08-23T13:53:56;1.27;;;0.65;;
40515;SDS011;26216;53.724;9.898;2022-08-23T13:56:24;1.38;;;0.98;;
40515;SDS011;26216;53.724;9.898;2022-08-23T13:58:59;1.88;;;0.90;;
40515;SDS011;26216;53.724;9.898;2022-08-23T14:01:27;1.27;;;0.80;;
40515;SDS011;26216;53.724;9.898;2022-08-23T14:03:54;1.98;;;1.17;;
40515;SDS011;26216;53.724;9.898;2022-08-23T14:06:23;1.90;;;0.90;;
40515;SDS011;26216;53.724;9.898;2022-08-23T14:08:52;2.65;;;1.02;;
40515;SDS011;26216;53.724;9.898;2022-08-23T14:11:18;1.80;;;1.02;;
40515;SDS011;26216;53.724;9.898;2022-08-23T14:13:45;1.65;;;0.93;;
40515;SDS011;26216;53.724;9.898;2022-08-23T14:16:31;1.80;;;0.90;;
40515;SDS011;26216;53.724;9.898;2022-08-23T14:19:08;1.70;;;1.02;;
40515;SDS011;26216;53.724;9.898;2022-08-23T14:21:35;1.25;;;0.80;;
40515;SDS011;26216;53.724;9.898;2022-08-23T14:24:01;1.05;;;0.70;;
40515;SDS011;26216;53.724;9.898;2022-08-23T14:26:28;1.50;;;0.90;;
40515;SDS011;26216;53.724;9.898;2022-08-23T14:28:54;1.65;;;0.98;;
40515;SDS011;26216;53.724;9.898;2022-08-23T14:31:20;3.38;;;1.00;;
40515;SDS011;26216;53.724;9.898;2022-08-23T14:33:48;0.85;;;0.80;;
40515;SDS011;26216;53.724;9.898;2022-08-23T14:36:15;1.90;;;0.80;;
40515;SDS011;26216;53.724;9.898;2022-08-23T14:38:44;1.85;;;1.23;;
40515;SDS011;26216;53.724;9.898;2022-08-23T14:41:12;1.05;;;0.80;;
40515;SDS011;26216;53.724;9.898;2022-08-23T14:43:46;1.33;;;0.73;;
40515;SDS011;26216;53.724;9.898;2022-08-23T14:46:24;1.23;;;0.85;;
40515;SDS011;26216;53.724;9.898;2022-08-23T14:48:51;2.70;;;0.80;;
40515;SDS011;26216;53.724;9.898;2022-08-23T14:51:25;1.38;;;0.82;;
40515;SDS011;26216;53.724;9.898;2022-08-23T14:53:53;0.60;;;0.60;;
40515;SDS011;26216;53.724;9.898;2022-08-23T14:56:22;1.77;;;1.00;;
40515;SDS011;26216;53.724;9.898;2022-08-23T14:58:48;1.23;;;0.70;;
40515;SDS011;26216;53.724;9.898;2022-08-23T15:01:15;0.93;;;0.70;;
40515;SDS011;26216;53.724;9.898;2022-08-23T15:03:43;0.80;;;0.75;;
40515;SDS011;26216;53.724;9.898;2022-08-23T15:06:11;4.13;;;0.80;;
40515;SDS011;26216;53.724;9.898;2022-08-23T15:08:38;1.33;;;0.77;;
40515;SDS011;26216;53.724;9.898;2022-08-23T15:11:05;1.38;;;0.70;;
40515;SDS011;26216;53.724;9.898;2022-08-23T15:13:33;0.77;;;0.63;;
40515;SDS011;26216;53.724;9.898;2022-08-23T15:16:02;2.47;;;1.00;;
40515;SDS011;26216;53.724;9.898;2022-08-23T15:18:30;1.80;;;0.85;;
40515;SDS011;26216;53.724;9.898;2022-08-23T15:20:57;2.15;;;1.05;;
40515;SDS011;26216;53.724;9.898;2022-08-23T15:23:23;1.77;;;0.82;;
40515;SDS011;26216;53.724;9.898;2022-08-23T15:25:49;1.67;;;0.95;;
40515;SDS011;26216;53.724;9.898;2022-08-23T15:28:16;2.00;;;0.82;;
40515;SDS011;26216;53.724;9.898;2022-08-23T15:30:43;1.27;;;1.00;;
40515;SDS011;26216;53.724;9.898;2022-08-23T15:33:10;2.58;;;1.10;;
40515;SDS011;26216;53.724;9.898;2022-08-23T15:35:38;2.00;;;0.95;;
40515;SDS011;26216;53.724;9.898;2022-08-23T15:38:06;1.40;;;0.90;;
40515;SDS011;26216;53.724;9.898;2022-08-23T15:40:32;1.63;;;0.93;;
40515;SDS011;26216;53.724;9.898;2022-08-23T15:42:58;2.65;;;0.93;;
40515;SDS011;26216;53.724;9.898;2022-08-23T15:45:24;1.15;;;0.60;;
40515;SDS011;26216;53.724;9.898;2022-08-23T15:47:51;1.30;;;0.80;;
40515;SDS011;26216;53.724;9.898;2022-08-23T15:50:20;1.63;;;0.77;;
40515;SDS011;26216;53.724;9.898;2022-08-23T15:52:48;1.75;;;0.90;;
40515;SDS011;26216;53.724;9.898;2022-08-23T15:55:16;1.90;;;1.00;;
40515;SDS011;26216;53.724;9.898;2022-08-23T15:57:46;1.77;;;0.82;;
40515;SDS011;26216;53.724;9.898;2022-08-23T16:00:15;1.38;;;0.85;;
40515;SDS011;26216;53.724;9.898;2022-08-23T16:02:42;2.00;;;0.88;;
40515;SDS011;26216;53.724;9.898;2022-08-23T16:05:09;1.10;;;0.80;;
40515;SDS011;26216;53.724;9.898;2022-08-23T16:07:36;1.38;;;0.70;;
40515;SDS011;26216;53.724;9.898;2022-08-23T16:10:05;1.80;;;0.90;;
40515;SDS011;26216;53.724;9.898;2022-08-23T16:12:31;1.17;;;0.80;;
40515;SDS011;26216;53.724;9.898;2022-08-23T16:15:00;1.55;;;1.00;;
40515;SDS011;26216;53.724;9.898;2022-08-23T16:17:26;1.95;;;1.20;;
40515;SDS011;26216;53.724;9.898;2022-08-23T16:19:55;2.58;;;0.85;;
40515;SDS011;26216;53.724;9.898;2022-08-23T16:22:21;1.38;;;0.90;;
40515;SDS011;26216;53.724;9.898;2022-08-23T16:24:47;1.77;;;1.00;;
40515;SDS011;26216;53.724;9.898;2022-08-23T16:27:13;1.00;;;0.90;;
40515;SDS011;26216;53.724;9.898;2022-08-23T16:29:39;1.45;;;0.80;;
40515;SDS011;26216;53.724;9.898;2022-08-23T16:32:08;1.77;;;0.90;;
40515;SDS011;26216;53.724;9.898;2022-08-23T16:34:37;1.98;;;0.90;;
40515;SDS011;26216;53.724;9.898;2022-08-23T16:37:12;1.60;;;0.80;;
40515;SDS011;26216;53.724;9.898;2022-08-23T16:39:41;2.85;;;1.00;;
40515;SDS011;26216;53.724;9.898;2022-08-23T16:42:09;1.60;;;0.80;;
40515;SDS011;26216;53.724;9.898;2022-08-23T16:44:35;1.83;;;1.00;;
40515;SDS011;26216;53.724;9.898;2022-08-23T16:47:02;1.77;;;0.95;;
40515;SDS011;26216;53.724;9.898;2022-08-23T16:49:32;1.88;;;1.10;;
40515;SDS011;26216;53.724;9.898;2022-08-23T16:51:59;1.90;;;1.02;;
40515;SDS011;26216;53.724;9.898;2022-08-23T16:54:25;1.42;;;0.85;;
40515;SDS011;26216;53.724;9.898;2022-08-23T16:56:54;1.25;;;0.70;;
40515;SDS011;26216;53.724;9.898;2022-08-23T16:59:21;2.20;;;1.00;;